createdAt,value
2022-09-23T00:01:08.484Z,6.36
2022-09-23T00:03:37.302Z,6.36
2022-09-23T00:06:08.119Z,6.32
2022-09-23T00:08:36.396Z,6.29
2022-09-23T00:11:06.532Z,6.27
2022-09-23T00:13:34.765Z,6.33
2022-09-23T00:16:05.806Z,6.25
2022-09-23T00:18:34.144Z,6.23
2022-09-23T00:21:04.162Z,6.23
2022-09-23T00:23:32.541Z,6.22
2022-09-23T00:26:02.430Z,6.22
2022-09-23T00:28:30.588Z,6.18
2022-09-23T00:30:58.934Z,6.15
2022-09-23T00:33:29.906Z,6.08
2022-09-23T00:36:00.331Z,6.06
2022-09-23T00:38:29.047Z,6.04
2022-09-23T00:40:57.318Z,5.99
2022-09-23T00:43:38.975Z,5.94
2022-09-23T00:46:08.712Z,5.92
2022-09-23T00:48:42.955Z,5.92
2022-09-23T00:51:14.103Z,5.90
2022-09-23T00:53:42.961Z,5.80
2022-09-23T00:56:12.469Z,5.75
2022-09-23T00:58:42.397Z,5.71
2022-09-23T01:01:11.135Z,5.76
2022-09-23T01:03:42.155Z,5.78
2022-09-23T01:06:11.337Z,5.78
2022-09-23T01:08:40.491Z,5.71
2022-09-23T01:11:19.024Z,5.68
2022-09-23T01:13:54.693Z,5.65
2022-09-23T01:16:28.270Z,5.59
2022-09-23T01:19:05.682Z,5.54
2022-09-23T01:21:42.145Z,5.63
2022-09-23T01:24:47.075Z,5.66
2022-09-23T01:27:29.220Z,5.64
2022-09-23T01:30:11.183Z,5.71
2022-09-23T01:32:57.777Z,5.73
2022-09-23T01:35:30.537Z,5.77
2022-09-23T01:38:04.829Z,5.80
2022-09-23T01:40:42.750Z,5.84
2022-09-23T01:43:13.767Z,5.77
2022-09-23T01:45:45.792Z,5.85
2022-09-23T01:48:19.584Z,5.94
2022-09-23T01:50:58.411Z,6.14
2022-09-23T01:53:33.475Z,6.22
2022-09-23T01:56:05.214Z,6.18
2022-09-23T01:58:38.544Z,6.08
2022-09-23T02:01:09.101Z,6.07
2022-09-23T02:03:43.931Z,5.88
2022-09-23T02:06:17.459Z,5.84
2022-09-23T02:08:48.952Z,6.11
2022-09-23T02:11:18.255Z,6.18
2022-09-23T02:13:50.356Z,6.23
2022-09-23T02:16:25.648Z,6.20
2022-09-23T02:18:58.991Z,6.13
2022-09-23T02:21:30.904Z,6.16
2022-09-23T02:24:05.793Z,6.15
2022-09-23T02:26:37.432Z,6.03
2022-09-23T02:29:12.365Z,6.04
2022-09-23T02:31:45.585Z,6.04
2022-09-23T02:34:23.455Z,6.03
2022-09-23T02:37:02.374Z,6.09
2022-09-23T02:39:37.159Z,6.11
2022-09-23T02:42:08.246Z,6.07
2022-09-23T02:44:37.165Z,6.02
2022-09-23T02:47:06.015Z,6.02
2022-09-23T02:49:36.679Z,6.02
2022-09-23T02:52:07.833Z,6.02
2022-09-23T02:54:36.652Z,5.97
2022-09-23T02:57:07.220Z,5.97
2022-09-23T02:59:37.123Z,5.97
2022-09-23T03:02:21.921Z,6.00
2022-09-23T03:04:59.164Z,6.01
2022-09-23T03:07:33.279Z,5.96
2022-09-23T03:10:09.776Z,6.02
2022-09-23T03:12:41.238Z,6.02
2022-09-23T03:15:20.174Z,6.04
2022-09-23T03:17:53.324Z,6.13
2022-09-23T03:20:27.826Z,6.12
2022-09-23T03:23:00.962Z,6.15
2022-09-23T03:25:33.341Z,6.17
2022-09-23T03:28:03.051Z,6.13
2022-09-23T03:30:35.621Z,6.09
2022-09-23T03:33:06.155Z,6.06
2022-09-23T03:35:59.702Z,6.03
2022-09-23T03:38:34.197Z,6.05
2022-09-23T03:41:05.259Z,6.08
2022-09-23T03:43:38.706Z,6.05
2022-09-23T03:46:08.955Z,6.01
2022-09-23T03:48:37.743Z,5.97
2022-09-23T03:51:16.603Z,6.02
2022-09-23T03:53:45.314Z,5.96
2022-09-23T03:56:14.061Z,5.92
2022-09-23T03:58:42.469Z,5.89
2022-09-23T04:01:11.349Z,5.92
2022-09-23T04:03:40.185Z,5.89
2022-09-23T04:06:10.590Z,5.94
2022-09-23T04:08:40.084Z,5.97
2022-09-23T04:11:09.785Z,5.93
2022-09-23T04:13:38.221Z,5.91
2022-09-23T04:16:07.462Z,5.93
2022-09-23T04:18:36.459Z,5.94
2022-09-23T04:21:05.623Z,5.92
2022-09-23T04:23:35.872Z,5.92
2022-09-23T04:26:06.389Z,5.94
2022-09-23T04:28:35.545Z,5.89
2022-09-23T04:31:05.582Z,5.94
2022-09-23T04:33:34.570Z,5.91
2022-09-23T04:36:03.482Z,5.81
2022-09-23T04:38:32.309Z,5.78
2022-09-23T04:41:03.039Z,5.81
2022-09-23T04:43:31.903Z,5.85
2022-09-23T04:46:01.643Z,5.81
2022-09-23T04:48:31.898Z,5.79
2022-09-23T04:51:04.755Z,5.82
2022-09-23T04:53:33.981Z,5.73
2022-09-23T04:56:05.574Z,5.69
2022-09-23T04:58:37.546Z,5.78
2022-09-23T05:01:10.920Z,5.90
2022-09-23T05:03:39.954Z,5.94
2022-09-23T05:06:09.082Z,5.77
2022-09-23T05:08:38.079Z,5.69
2022-09-23T05:11:09.117Z,5.56
2022-09-23T05:13:37.652Z,5.57
2022-09-23T05:16:08.436Z,5.54
2022-09-23T05:18:39.183Z,5.64
2022-09-23T05:21:08.414Z,5.80
2022-09-23T05:23:37.886Z,6.01
2022-09-23T05:26:09.810Z,6.16
2022-09-23T05:28:39.487Z,6.22
2022-09-23T05:31:10.261Z,6.28
2022-09-23T05:33:39.460Z,6.32
2022-09-23T05:36:09.012Z,6.45
2022-09-23T05:38:38.161Z,6.60
2022-09-23T05:41:11.080Z,6.79
2022-09-23T05:43:41.979Z,6.86
2022-09-23T05:46:14.244Z,6.88
2022-09-23T05:48:45.997Z,6.76
2022-09-23T05:51:16.463Z,6.66
2022-09-23T05:53:45.615Z,6.74
2022-09-23T05:56:16.796Z,6.87
2022-09-23T05:58:45.522Z,7.11
2022-09-23T06:01:18.064Z,7.27
2022-09-23T06:03:47.888Z,7.35
2022-09-23T06:06:18.187Z,7.79
2022-09-23T06:08:47.312Z,7.93
2022-09-23T06:11:17.513Z,7.93
2022-09-23T06:13:45.874Z,7.70
2022-09-23T06:16:16.209Z,7.95
2022-09-23T06:18:45.321Z,7.93
2022-09-23T06:21:15.079Z,8.21
2022-09-23T06:23:44.539Z,8.30
2022-09-23T06:26:14.902Z,8.30
2022-09-23T06:28:46.189Z,8.40
2022-09-23T06:31:16.500Z,8.48
2022-09-23T06:33:45.525Z,8.49
2022-09-23T06:36:24.755Z,8.52
2022-09-23T06:39:03.562Z,8.42
2022-09-23T06:41:32.757Z,8.76
2022-09-23T06:44:03.476Z,9.18
2022-09-23T06:46:32.554Z,10.30
2022-09-23T06:49:02.279Z,11.13
2022-09-23T06:51:31.091Z,12.39
2022-09-23T06:53:59.957Z,14.25
2022-09-23T06:56:28.838Z,16.16
2022-09-23T06:58:57.527Z,16.09
2022-09-23T07:01:27.828Z,16.15
2022-09-23T07:03:56.688Z,15.89
2022-09-23T07:06:25.485Z,16.94
2022-09-23T07:08:54.183Z,18.48
2022-09-23T07:11:23.183Z,18.12
2022-09-23T07:13:54.586Z,16.78
2022-09-23T07:16:23.512Z,15.72
2022-09-23T07:18:53.955Z,14.65
2022-09-23T07:21:22.588Z,13.82
2022-09-23T07:23:52.113Z,13.76
2022-09-23T07:26:21.615Z,13.33
2022-09-23T07:28:55.638Z,13.44
2022-09-23T07:31:37.965Z,14.09
2022-09-23T07:34:11.848Z,15.79
2022-09-23T07:36:41.815Z,17.39
2022-09-23T07:39:11.801Z,18.32
2022-09-23T07:41:41.912Z,19.09
2022-09-23T07:44:11.987Z,19.60
2022-09-23T07:46:40.556Z,19.58
2022-09-23T07:49:11.526Z,19.92
2022-09-23T07:51:41.478Z,21.19
2022-09-23T07:54:13.310Z,23.15
2022-09-23T07:56:43.567Z,24.70
2022-09-23T07:59:15.548Z,25.38
2022-09-23T08:01:46.405Z,23.92
2022-09-23T08:04:18.969Z,22.04
2022-09-23T08:06:49.672Z,22.67
2022-09-23T08:09:20.193Z,23.17
2022-09-23T08:11:49.607Z,22.05
2022-09-23T08:14:19.329Z,21.63
2022-09-23T08:16:48.457Z,21.10
2022-09-23T08:19:19.023Z,21.73
2022-09-23T08:21:48.208Z,22.62
2022-09-23T08:24:19.433Z,23.51
2022-09-23T08:26:48.998Z,23.11
2022-09-23T08:29:19.298Z,23.67
2022-09-23T08:31:47.550Z,25.54
2022-09-23T08:34:18.844Z,25.90
2022-09-23T08:36:48.249Z,27.11
2022-09-23T08:39:19.596Z,26.84
2022-09-23T08:41:59.083Z,26.42
2022-09-23T08:44:29.785Z,25.85
2022-09-23T08:47:04.439Z,27.38
2022-09-23T08:49:38.818Z,26.94
2022-09-23T08:52:13.224Z,26.49
2022-09-23T08:54:42.407Z,24.91
2022-09-23T08:57:20.848Z,26.40
2022-09-23T08:59:49.784Z,28.31
2022-09-23T09:02:20.907Z,27.96
2022-09-23T09:04:53.817Z,29.07
2022-09-23T09:07:35.609Z,29.30
2022-09-23T09:10:08.003Z,31.11
2022-09-23T09:12:43.282Z,30.37
2022-09-23T09:15:15.314Z,28.47
2022-09-23T09:17:50.259Z,29.81
2022-09-23T09:20:24.441Z,28.88
2022-09-23T09:22:56.143Z,25.17
2022-09-23T09:25:33.500Z,23.09
2022-09-23T09:28:04.939Z,22.19
2022-09-23T09:30:36.390Z,23.73
2022-09-23T09:33:06.944Z,22.73
2022-09-23T09:35:42.204Z,18.37
2022-09-23T09:38:11.096Z,16.39
2022-09-23T09:40:46.258Z,15.67
2022-09-23T09:43:23.708Z,18.10
2022-09-23T09:46:03.421Z,21.46
2022-09-23T09:48:39.067Z,25.47
2022-09-23T09:51:22.273Z,27.58
2022-09-23T09:53:52.740Z,29.37
2022-09-23T09:56:26.815Z,29.32
2022-09-23T09:58:56.963Z,29.04
2022-09-23T10:01:27.044Z,29.14
2022-09-23T10:03:59.493Z,26.24
2022-09-23T10:06:32.697Z,21.56
2022-09-23T10:09:13.941Z,19.17
2022-09-23T10:11:43.208Z,18.65
2022-09-23T10:14:14.984Z,20.71
2022-09-23T10:16:43.451Z,25.39
2022-09-23T10:19:23.540Z,30.13
2022-09-23T10:21:54.713Z,33.04
2022-09-23T10:24:26.085Z,31.98
2022-09-23T10:26:58.337Z,27.60
2022-09-23T10:29:32.073Z,28.82
2022-09-23T10:32:23.794Z,29.79
2022-09-23T10:34:55.914Z,28.90
2022-09-23T10:37:33.777Z,30.13
2022-09-23T10:40:34.683Z,32.51
2022-09-23T10:43:42.550Z,32.60
2022-09-23T10:46:36.516Z,36.33
2022-09-23T10:49:43.908Z,36.47
2022-09-23T10:52:28.667Z,38.60
2022-09-23T10:55:06.602Z,39.51
2022-09-23T10:57:48.561Z,36.67
2022-09-23T11:00:23.489Z,31.97
2022-09-23T11:03:32.394Z,25.09
2022-09-23T11:06:11.471Z,28.11
2022-09-23T11:08:52.353Z,26.70
2022-09-23T11:11:30.456Z,24.48
2022-09-23T11:14:16.134Z,22.07
2022-09-23T11:16:55.953Z,20.41
2022-09-23T11:19:54.003Z,19.17
2022-09-23T11:22:38.098Z,18.45
2022-09-23T11:25:23.989Z,18.04
2022-09-23T11:28:04.019Z,17.99
2022-09-23T11:30:41.203Z,17.91
2022-09-23T11:33:27.294Z,17.47
2022-09-23T11:35:59.338Z,16.66
2022-09-23T11:38:32.152Z,16.24
2022-09-23T11:41:05.514Z,19.38
2022-09-23T11:43:37.176Z,24.81
2022-09-23T11:46:10.149Z,24.07
2022-09-23T11:48:42.594Z,20.28
2022-09-23T11:51:16.194Z,18.77
2022-09-23T11:53:47.707Z,18.03
2022-09-23T11:56:33.935Z,20.02
2022-09-23T11:59:07.848Z,24.58
2022-09-23T12:01:43.165Z,26.36
2022-09-23T12:04:21.116Z,26.81
2022-09-23T12:06:57.070Z,27.41
2022-09-23T12:09:53.843Z,24.95
2022-09-23T12:12:26.995Z,23.43
2022-09-23T12:15:00.807Z,21.83
2022-09-23T12:18:04.563Z,20.46
2022-09-23T12:20:44.058Z,20.88
2022-09-23T12:23:24.815Z,19.95
2022-09-23T12:25:57.309Z,19.34
2022-09-23T12:28:29.793Z,21.11
2022-09-23T12:31:02.367Z,25.11
2022-09-23T12:33:33.042Z,29.11
2022-09-23T12:36:05.915Z,25.76
2022-09-23T12:38:36.747Z,20.97
2022-09-23T12:41:22.145Z,19.04
2022-09-23T12:43:56.524Z,18.49
2022-09-23T12:46:27.572Z,18.19
2022-09-23T12:49:03.993Z,19.91
2022-09-23T12:51:34.706Z,24.12
2022-09-23T12:54:24.984Z,26.11
2022-09-23T12:57:00.352Z,24.01
2022-09-23T12:59:32.607Z,22.72
2022-09-23T13:02:27.387Z,20.99
2022-09-23T13:05:16.994Z,20.12
2022-09-23T13:07:47.563Z,19.44
2022-09-23T13:10:23.990Z,18.80
2022-09-23T13:12:53.780Z,18.08
2022-09-23T13:15:30.778Z,17.47
2022-09-23T13:18:25.153Z,16.90
2022-09-23T13:20:55.111Z,16.57
2022-09-23T13:23:25.561Z,15.97
2022-09-23T13:25:55.938Z,15.57
2022-09-23T13:28:38.077Z,15.48
2022-09-23T13:31:14.446Z,15.46
2022-09-23T13:33:47.153Z,15.23
2022-09-23T13:36:18.016Z,14.98
2022-09-23T13:38:48.872Z,14.97
2022-09-23T13:41:19.956Z,15.03
2022-09-23T13:43:51.237Z,14.92
2022-09-23T13:46:23.380Z,14.66
2022-09-23T13:48:54.810Z,14.14
2022-09-23T13:51:27.640Z,14.38
2022-09-23T13:53:58.305Z,14.62
2022-09-23T13:56:28.735Z,14.65
2022-09-23T13:59:13.573Z,14.77
2022-09-23T14:01:43.900Z,15.02
2022-09-23T14:04:24.890Z,15.43
2022-09-23T14:06:53.962Z,15.94
2022-09-23T14:09:25.673Z,16.19
2022-09-23T14:11:54.926Z,16.26
2022-09-23T14:14:24.339Z,16.10
2022-09-23T14:16:54.617Z,15.89
2022-09-23T14:19:24.921Z,15.81
2022-09-23T14:21:55.099Z,15.92
2022-09-23T14:24:25.709Z,15.83
2022-09-23T14:26:57.175Z,15.79
2022-09-23T14:29:27.357Z,15.63
2022-09-23T14:32:00.337Z,15.60
2022-09-23T14:34:46.932Z,15.97
2022-09-23T14:37:43.397Z,17.25
2022-09-23T14:40:16.112Z,19.86
2022-09-23T14:42:47.760Z,22.21
2022-09-23T14:45:21.075Z,24.21
2022-09-23T14:47:52.978Z,25.85
2022-09-23T14:50:47.454Z,26.08
2022-09-23T14:53:40.584Z,26.80
2022-09-23T14:56:13.990Z,25.95
2022-09-23T14:58:50.964Z,23.98
2022-09-23T15:01:29.279Z,23.71
2022-09-23T15:04:00.660Z,24.05
2022-09-23T15:06:29.546Z,22.59
2022-09-23T15:08:58.402Z,21.65
2022-09-23T15:11:29.564Z,22.33
2022-09-23T15:14:05.418Z,24.28
2022-09-23T15:16:43.075Z,24.46
2022-09-23T15:19:19.171Z,24.32
2022-09-23T15:21:49.663Z,23.23
2022-09-23T15:24:39.727Z,21.79
2022-09-23T15:27:21.279Z,19.73
2022-09-23T15:29:51.945Z,18.74
2022-09-23T15:32:20.903Z,18.18
2022-09-23T15:34:52.044Z,17.29
2022-09-23T15:37:23.266Z,16.44
2022-09-23T15:39:52.561Z,15.81
2022-09-23T15:42:21.411Z,15.36
2022-09-23T15:44:51.117Z,14.89
2022-09-23T15:47:21.717Z,14.56
2022-09-23T15:49:51.764Z,14.27
2022-09-23T15:52:22.386Z,14.00
2022-09-23T15:54:52.191Z,13.70
2022-09-23T15:57:21.725Z,13.43
2022-09-23T15:59:50.523Z,13.38
2022-09-23T16:02:22.421Z,13.28
2022-09-23T16:04:52.771Z,13.12
2022-09-23T16:07:32.897Z,12.93
2022-09-23T16:10:02.517Z,12.74
2022-09-23T16:12:31.503Z,12.63
2022-09-23T16:15:00.338Z,12.47
2022-09-23T16:17:29.358Z,12.30
2022-09-23T16:19:59.544Z,12.19
2022-09-23T16:22:28.062Z,12.07
2022-09-23T16:24:56.824Z,11.91
2022-09-23T16:27:26.227Z,11.80
2022-09-23T16:29:55.309Z,11.67
2022-09-23T16:32:24.404Z,11.57
2022-09-23T16:34:52.896Z,11.47
2022-09-23T16:37:23.841Z,11.44
2022-09-23T16:39:54.088Z,11.38
2022-09-23T16:42:23.343Z,11.36
2022-09-23T16:44:52.208Z,11.38
2022-09-23T16:47:22.649Z,11.34
2022-09-23T16:49:51.141Z,11.31
2022-09-23T16:52:19.936Z,11.28
2022-09-23T16:54:50.690Z,11.19
2022-09-23T16:57:19.904Z,11.10
2022-09-23T17:00:06.378Z,11.01
2022-09-23T17:02:52.792Z,10.89
2022-09-23T17:05:21.573Z,10.78
2022-09-23T17:07:50.118Z,10.68
2022-09-23T17:10:21.529Z,10.56
2022-09-23T17:12:54.632Z,10.49
2022-09-23T17:15:23.674Z,10.40
2022-09-23T17:17:52.514Z,10.34
2022-09-23T17:20:21.365Z,10.28
2022-09-23T17:22:49.998Z,10.23
2022-09-23T17:25:20.573Z,10.23
2022-09-23T17:27:49.624Z,10.23
2022-09-23T17:30:18.673Z,10.11
2022-09-23T17:32:47.426Z,10.14
2022-09-23T17:35:16.501Z,10.22
2022-09-23T17:37:46.903Z,10.25
2022-09-23T17:40:19.715Z,10.28
2022-09-23T17:42:48.697Z,10.32
2022-09-23T17:45:17.718Z,10.37
2022-09-23T17:47:54.988Z,10.40
2022-09-23T17:50:23.815Z,10.46
2022-09-23T17:52:52.298Z,10.49
2022-09-23T17:55:22.525Z,10.55
2022-09-23T17:57:52.887Z,10.64
2022-09-23T18:00:21.757Z,10.66
2022-09-23T18:02:52.688Z,10.66
2022-09-23T18:05:22.024Z,10.68
2022-09-23T18:07:50.716Z,10.69
2022-09-23T18:10:19.530Z,10.71
2022-09-23T18:12:49.875Z,10.73
2022-09-23T18:15:20.144Z,10.71
2022-09-23T18:17:49.042Z,10.69
2022-09-23T18:20:18.192Z,10.78
2022-09-23T18:22:46.699Z,10.80
2022-09-23T18:25:37.579Z,10.80
2022-09-23T18:28:06.352Z,10.83
2022-09-23T18:30:39.513Z,10.84
2022-09-23T18:33:08.434Z,10.86
2022-09-23T18:35:37.397Z,10.85
2022-09-23T18:38:06.467Z,10.84
2022-09-23T18:40:35.102Z,10.90
2022-09-23T18:43:05.418Z,10.91
2022-09-23T18:45:34.360Z,10.87
2022-09-23T18:48:20.963Z,10.82
2022-09-23T18:50:49.742Z,10.82
2022-09-23T18:53:19.859Z,10.85
2022-09-23T18:55:48.421Z,10.79
2022-09-23T18:58:18.888Z,10.80
2022-09-23T19:00:50.303Z,10.80
2022-09-23T19:03:19.115Z,10.68
2022-09-23T19:05:50.075Z,10.80
2022-09-23T19:08:19.977Z,10.81
2022-09-23T19:10:56.913Z,10.81
2022-09-23T19:13:28.146Z,10.81
2022-09-23T19:15:57.132Z,10.80
2022-09-23T19:18:26.167Z,10.80
2022-09-23T19:21:02.556Z,10.68
2022-09-23T19:23:36.342Z,10.68
2022-09-23T19:26:06.842Z,10.66
2022-09-23T19:28:37.033Z,10.64
2022-09-23T19:31:09.907Z,10.47
2022-09-23T19:33:39.308Z,10.40
2022-09-23T19:36:09.632Z,10.38
2022-09-23T19:38:38.870Z,10.33
2022-09-23T19:41:08.071Z,10.26
2022-09-23T19:43:39.239Z,10.20
2022-09-23T19:46:08.434Z,10.15
2022-09-23T19:48:37.352Z,10.14
2022-09-23T19:51:06.805Z,10.12
2022-09-23T19:53:35.627Z,10.07
2022-09-23T19:56:05.199Z,9.99
2022-09-23T19:58:35.579Z,9.91
2022-09-23T20:01:09.545Z,9.85
2022-09-23T20:03:39.042Z,9.80
2022-09-23T20:06:07.989Z,9.74
2022-09-23T20:08:38.414Z,9.72
2022-09-23T20:11:12.239Z,9.68
2022-09-23T20:13:41.848Z,9.66
2022-09-23T20:16:12.581Z,9.65
2022-09-23T20:18:41.959Z,9.61
2022-09-23T20:21:13.661Z,9.56
2022-09-23T20:23:42.667Z,9.44
2022-09-23T20:26:29.369Z,9.30
2022-09-23T20:29:01.570Z,9.16
2022-09-23T20:31:32.249Z,9.05
2022-09-23T20:34:05.742Z,9.00
2022-09-23T20:36:36.358Z,8.94
2022-09-23T20:39:07.048Z,8.88
2022-09-23T20:41:37.979Z,8.76
2022-09-23T20:44:10.489Z,8.64
2022-09-23T20:46:44.143Z,8.61
2022-09-23T20:49:17.614Z,8.48
2022-09-23T20:51:48.404Z,8.43
2022-09-23T20:54:19.124Z,8.35
2022-09-23T20:56:49.211Z,8.28
2022-09-23T20:59:18.290Z,8.20
2022-09-23T21:01:48.267Z,8.08
2022-09-23T21:04:17.406Z,7.88
2022-09-23T21:06:46.916Z,7.87
2022-09-23T21:09:15.710Z,7.86
2022-09-23T21:11:44.523Z,7.82
2022-09-23T21:14:13.578Z,7.85
2022-09-23T21:16:42.090Z,7.93
2022-09-23T21:19:12.207Z,7.96
2022-09-23T21:21:40.939Z,7.92
2022-09-23T21:24:43.759Z,7.89
2022-09-23T21:26:58.648Z,7.93
2022-09-23T21:29:27.850Z,7.90
2022-09-23T21:31:56.207Z,7.87
2022-09-23T21:34:28.365Z,7.73
2022-09-23T21:36:57.633Z,7.65
2022-09-23T21:39:26.468Z,7.62
2022-09-23T21:41:55.246Z,7.57
2022-09-23T21:44:23.962Z,7.57
2022-09-23T21:46:52.495Z,7.53
2022-09-23T21:49:21.732Z,7.62
2022-09-23T21:51:55.343Z,7.69
2022-09-23T21:54:24.180Z,7.68
2022-09-23T21:56:52.930Z,7.66
2022-09-23T21:59:21.693Z,7.61
2022-09-23T22:01:53.946Z,7.52
2022-09-23T22:04:23.053Z,7.41
2022-09-23T22:06:54.114Z,7.38
2022-09-23T22:09:22.881Z,7.31
2022-09-23T22:12:08.940Z,7.24
2022-09-23T22:14:39.108Z,7.19
2022-09-23T22:17:10.963Z,7.15
2022-09-23T22:19:45.794Z,7.14
2022-09-23T22:22:18.991Z,7.08
2022-09-23T22:24:48.603Z,7.03
2022-09-23T22:27:19.227Z,6.91
2022-09-23T22:30:05.830Z,6.84
2022-09-23T22:32:46.273Z,6.78
2022-09-23T22:35:16.753Z,6.78
2022-09-23T22:37:47.459Z,6.77
2022-09-23T22:40:16.955Z,6.78
2022-09-23T22:42:46.012Z,6.72
2022-09-23T22:45:15.152Z,6.65
2022-09-23T22:47:45.556Z,6.65
2022-09-23T22:50:15.418Z,6.62
2022-09-23T22:52:44.264Z,6.65
2022-09-23T22:55:14.515Z,6.52
2022-09-23T22:57:43.381Z,6.47
2022-09-23T23:00:13.701Z,6.40
2022-09-23T23:02:42.695Z,6.38
2022-09-23T23:05:11.882Z,6.35
2022-09-23T23:07:40.658Z,6.25
2022-09-23T23:10:10.431Z,6.27
2022-09-23T23:12:41.322Z,6.21
2022-09-23T23:15:12.871Z,6.18
2022-09-23T23:17:43.777Z,6.07
2022-09-23T23:20:12.902Z,6.14
2022-09-23T23:22:42.640Z,6.08
2022-09-23T23:25:11.532Z,5.94
2022-09-23T23:27:41.718Z,5.89
2022-09-23T23:30:11.256Z,5.87
2022-09-23T23:32:40.066Z,5.84
2022-09-23T23:35:09.750Z,5.85
2022-09-23T23:37:38.485Z,5.86
2022-09-23T23:40:08.208Z,5.87
2022-09-23T23:42:37.092Z,5.82
2022-09-23T23:45:09.321Z,5.79
2022-09-23T23:47:38.799Z,5.75
2022-09-23T23:50:09.919Z,5.74
2022-09-23T23:52:38.602Z,5.75
2022-09-23T23:55:07.733Z,5.74
2022-09-23T23:57:36.630Z,5.63
